Puget Island, Washington
Current Conditions -  °F | °C
As of 9:55 AM on Thursday 30 Oct 2014 (Local Time) from KAST Reporting Station
Light Rain Light Rain  
Wind Chill: 59°   Ceiling: 3000
Heat Index: 59°   Visibility: 8mi
Dew Point: 55°   Wind: 6mph
Humidity: 87%   Direction: 120°ESE
Pressure: 29.8"   Gusts: NA
Location:  46.2689°N, 123.296°W
Report Text: KAST 301655Z AUTO 12005KT 8SM -RA OVC030 15/13 A2980 RMK AO2 RAB41 SLP091 P0000 T01500128
Loading
Personal Weather Stations






























Interactive Weather Map
Tropical Storm Tracking
New forecast layout! Learn more

10-Day Weather Forecast

Advertisements
Track Severe Weather on mobile